Estinnes-au-Val, Belgium
Current Conditions -  °F | °C
As of 3:20 PM on Saturday 25 Oct 2014 (Local Time) from EBCI Reporting Station
Broken Clouds Broken Clouds  
Wind Chill: 55°   Ceiling: 3000
Heat Index: 55°   Visibility: 5mi
Dew Point: 54°   Wind: 8mph
Humidity: 94%   Direction: 250°WSW
Pressure: 30.12"   Gusts: NA
Location:  50.41°N, 4.1°E
Report Text: EBCI 251320Z 25007KT 8000 FEW005 SCT008 BKN030 13/12 Q1020 NOSIG
Loading
Personal Weather Stations






























Interactive Weather Map
Tropical Storm Tracking
New forecast layout! Learn more

10-Day Weather Forecast

Advertisements
Track Severe Weather on mobile